sensor_id;sensor_type;location;lat;lon;timestamp;pressure;altitude;pressure_sealevel;temperature;humidity
41202;BME280;26936;50.524;8.684;2023-07-28T00:01:53;98486.97;;;16.22;100.00
41202;BME280;26936;50.524;8.684;2023-07-28T00:04:18;98490.31;;;16.20;100.00
41202;BME280;26936;50.524;8.684;2023-07-28T00:06:43;98486.72;;;16.20;100.00
41202;BME280;26936;50.524;8.684;2023-07-28T00:09:08;98486.44;;;16.18;100.00
41202;BME280;26936;50.524;8.684;2023-07-28T00:11:34;98491.34;;;16.17;100.00
41202;BME280;26936;50.524;8.684;2023-07-28T00:13:59;98491.06;;;16.15;100.00
41202;BME280;26936;50.524;8.684;2023-07-28T00:16:24;98483.88;;;16.20;100.00
41202;BME280;26936;50.524;8.684;2023-07-28T00:18:49;98487.22;;;16.24;100.00
41202;BME280;26936;50.524;8.684;2023-07-28T00:21:15;98482.31;;;16.19;100.00
41202;BME280;26936;50.524;8.684;2023-07-28T00:23:40;98487.47;;;16.20;100.00
41202;BME280;26936;50.524;8.684;2023-07-28T00:52:51;98452.59;;;16.03;100.00
41202;BME280;26936;50.524;8.684;2023-07-28T00:55:26;98469.88;;;16.05;100.00
41202;BME280;26936;50.524;8.684;2023-07-28T01:04:26;98466.53;;;16.07;100.00
41202;BME280;26936;50.524;8.684;2023-07-28T01:39:45;98443.84;;;16.29;100.00
41202;BME280;26936;50.524;8.684;2023-07-28T01:45:27;98422.94;;;16.32;100.00
41202;BME280;26936;50.524;8.684;2023-07-28T01:47:52;98441.25;;;16.25;100.00
41202;BME280;26936;50.524;8.684;2023-07-28T01:50:18;98449.00;;;16.25;100.00
41202;BME280;26936;50.524;8.684;2023-07-28T01:55:57;98443.59;;;16.27;100.00
41202;BME280;26936;50.524;8.684;2023-07-28T01:58:23;98437.38;;;16.28;100.00
41202;BME280;26936;50.524;8.684;2023-07-28T02:00:51;98439.47;;;16.28;100.00
41202;BME280;26936;50.524;8.684;2023-07-28T02:03:22;98435.06;;;16.27;100.00
41202;BME280;26936;50.524;8.684;2023-07-28T02:05:48;98436.88;;;16.30;100.00
41202;BME280;26936;50.524;8.684;2023-07-28T02:08:17;98436.38;;;16.26;100.00
41202;BME280;26936;50.524;8.684;2023-07-28T02:14:20;98437.66;;;16.30;100.00
41202;BME280;26936;50.524;8.684;2023-07-28T02:17:27;98438.69;;;16.27;100.00
41202;BME280;26936;50.524;8.684;2023-07-28T02:20:05;98446.19;;;16.30;100.00
41202;BME280;26936;50.524;8.684;2023-07-28T02:23:10;98451.84;;;16.30;100.00
41202;BME280;26936;50.524;8.684;2023-07-28T02:33:56;98454.47;;;16.34;100.00
41202;BME280;26936;50.524;8.684;2023-07-28T02:43:31;98453.94;;;16.36;100.00
41202;BME280;26936;50.524;8.684;2023-07-28T02:46:06;98452.13;;;16.33;100.00
41202;BME280;26936;50.524;8.684;2023-07-28T02:55:54;98461.44;;;16.33;100.00
41202;BME280;26936;50.524;8.684;2023-07-28T03:05:55;98463.25;;;16.42;100.00
41202;BME280;26936;50.524;8.684;2023-07-28T03:09:07;98465.31;;;16.41;100.00
41202;BME280;26936;50.524;8.684;2023-07-28T03:12:19;98460.16;;;16.40;100.00
41202;BME280;26936;50.524;8.684;2023-07-28T03:25:42;98467.66;;;16.43;100.00
41202;BME280;26936;50.524;8.684;2023-07-28T03:42:39;98472.28;;;16.40;100.00
41202;BME280;26936;50.524;8.684;2023-07-28T03:56:04;98476.19;;;16.48;100.00
41202;BME280;26936;50.524;8.684;2023-07-28T03:59:19;98475.94;;;16.52;100.00
41202;BME280;26936;50.524;8.684;2023-07-28T04:02:27;98471.03;;;16.47;100.00
41202;BME280;26936;50.524;8.684;2023-07-28T04:09:05;98471.03;;;16.52;100.00
41202;BME280;26936;50.524;8.684;2023-07-28T04:22:39;98495.84;;;16.57;100.00
41202;BME280;26936;50.524;8.684;2023-07-28T04:29:12;98496.38;;;16.56;100.00
41202;BME280;26936;50.524;8.684;2023-07-28T04:31:38;98504.91;;;16.56;100.00
41202;BME280;26936;50.524;8.684;2023-07-28T04:34:03;98498.19;;;16.59;100.00
41202;BME280;26936;50.524;8.684;2023-07-28T04:36:28;98508.00;;;16.63;100.00
41202;BME280;26936;50.524;8.684;2023-07-28T04:38:53;98502.31;;;16.63;100.00
41202;BME280;26936;50.524;8.684;2023-07-28T04:41:19;98498.97;;;16.70;100.00
41202;BME280;26936;50.524;8.684;2023-07-28T04:43:44;98506.22;;;16.71;100.00
41202;BME280;26936;50.524;8.684;2023-07-28T04:46:09;98509.84;;;16.72;100.00
41202;BME280;26936;50.524;8.684;2023-07-28T04:48:35;98512.41;;;16.81;100.00
41202;BME280;26936;50.524;8.684;2023-07-28T04:51:00;98507.78;;;16.83;100.00
41202;BME280;26936;50.524;8.684;2023-07-28T04:53:25;98516.28;;;16.89;100.00
41202;BME280;26936;50.524;8.684;2023-07-28T04:55:51;98516.06;;;16.87;100.00
41202;BME280;26936;50.524;8.684;2023-07-28T04:58:16;98515.53;;;16.99;100.00
41202;BME280;26936;50.524;8.684;2023-07-28T05:00:41;98512.94;;;17.01;100.00
41202;BME280;26936;50.524;8.684;2023-07-28T05:03:07;98516.56;;;17.13;100.00
41202;BME280;26936;50.524;8.684;2023-07-28T05:05:32;98513.19;;;17.09;100.00
41202;BME280;26936;50.524;8.684;2023-07-28T05:07:57;98517.59;;;17.04;100.00
41202;BME280;26936;50.524;8.684;2023-07-28T05:10:23;98517.59;;;17.10;100.00
41202;BME280;26936;50.524;8.684;2023-07-28T05:12:48;98525.38;;;17.09;100.00
41202;BME280;26936;50.524;8.684;2023-07-28T05:15:15;98523.53;;;17.12;100.00
41202;BME280;26936;50.524;8.684;2023-07-28T05:17:40;98526.63;;;17.08;100.00
41202;BME280;26936;50.524;8.684;2023-07-28T05:20:06;98527.69;;;17.11;100.00
41202;BME280;26936;50.524;8.684;2023-07-28T05:22:31;98530.50;;;17.16;100.00
41202;BME280;26936;50.524;8.684;2023-07-28T05:24:56;98526.13;;;17.32;100.00
41202;BME280;26936;50.524;8.684;2023-07-28T05:27:22;98531.53;;;17.30;100.00
41202;BME280;26936;50.524;8.684;2023-07-28T05:29:47;98528.97;;;17.26;100.00
41202;BME280;26936;50.524;8.684;2023-07-28T05:32:12;98525.84;;;17.35;100.00
41202;BME280;26936;50.524;8.684;2023-07-28T05:34:38;98533.34;;;17.33;100.00
41202;BME280;26936;50.524;8.684;2023-07-28T05:37:06;98529.47;;;17.41;100.00
41202;BME280;26936;50.524;8.684;2023-07-28T05:39:31;98537.22;;;17.41;100.00
41202;BME280;26936;50.524;8.684;2023-07-28T05:41:57;98528.16;;;17.42;100.00
41202;BME280;26936;50.524;8.684;2023-07-28T05:44:22;98527.66;;;17.38;100.00
41202;BME280;26936;50.524;8.684;2023-07-28T05:46:47;98530.00;;;17.51;100.00
41202;BME280;26936;50.524;8.684;2023-07-28T05:49:13;98531.81;;;17.48;100.00
41202;BME280;26936;50.524;8.684;2023-07-28T05:51:39;98535.69;;;17.56;100.00
41202;BME280;26936;50.524;8.684;2023-07-28T05:54:04;98539.31;;;17.51;100.00
41202;BME280;26936;50.524;8.684;2023-07-28T05:56:29;98530.78;;;17.51;100.00
41202;BME280;26936;50.524;8.684;2023-07-28T05:58:55;98529.97;;;17.62;100.00
41202;BME280;26936;50.524;8.684;2023-07-28T06:01:20;98538.00;;;17.58;100.00
41202;BME280;26936;50.524;8.684;2023-07-28T06:03:45;98539.81;;;17.55;100.00
41202;BME280;26936;50.524;8.684;2023-07-28T06:06:11;98545.00;;;17.51;100.00
41202;BME280;26936;50.524;8.684;2023-07-28T06:08:37;98544.22;;;17.51;100.00
41202;BME280;26936;50.524;8.684;2023-07-28T06:11:06;98549.66;;;17.54;100.00
41202;BME280;26936;50.524;8.684;2023-07-28T06:13:32;98545.00;;;17.51;100.00
41202;BME280;26936;50.524;8.684;2023-07-28T06:15:57;98547.34;;;17.47;100.00
41202;BME280;26936;50.524;8.684;2023-07-28T06:18:23;98541.38;;;17.51;100.00
41202;BME280;26936;50.524;8.684;2023-07-28T06:20:49;98555.34;;;17.54;100.00
41202;BME280;26936;50.524;8.684;2023-07-28T06:23:14;98549.13;;;17.62;100.00
41202;BME280;26936;50.524;8.684;2023-07-28T06:25:40;98554.28;;;17.69;100.00
41202;BME280;26936;50.524;8.684;2023-07-28T06:28:12;98551.44;;;17.80;100.00
41202;BME280;26936;50.524;8.684;2023-07-28T06:30:38;98552.41;;;17.93;100.00
41202;BME280;26936;50.524;8.684;2023-07-28T06:33:05;98559.38;;;18.03;100.00
41202;BME280;26936;50.524;8.684;2023-07-28T06:35:31;98545.66;;;18.02;100.00
41202;BME280;26936;50.524;8.684;2023-07-28T06:37:56;98547.44;;;18.10;100.00
41202;BME280;26936;50.524;8.684;2023-07-28T06:40:22;98548.75;;;18.09;100.00
41202;BME280;26936;50.524;8.684;2023-07-28T06:42:47;98559.31;;;18.14;100.00
41202;BME280;26936;50.524;8.684;2023-07-28T06:45:12;98557.97;;;18.26;100.00
41202;BME280;26936;50.524;8.684;2023-07-28T06:47:39;98565.19;;;18.38;100.00
41202;BME280;26936;50.524;8.684;2023-07-28T06:50:04;98575.09;;;18.26;100.00
41202;BME280;26936;50.524;8.684;2023-07-28T06:52:30;98576.13;;;18.23;100.00
41202;BME280;26936;50.524;8.684;2023-07-28T06:54:56;98566.56;;;18.21;100.00
41202;BME280;26936;50.524;8.684;2023-07-28T06:57:21;98569.13;;;18.24;100.00
41202;BME280;26936;50.524;8.684;2023-07-28T06:59:46;98572.44;;;18.34;100.00
41202;BME280;26936;50.524;8.684;2023-07-28T07:02:12;98583.84;;;18.45;100.00
41202;BME280;26936;50.524;8.684;2023-07-28T07:04:37;98574.69;;;18.63;100.00
41202;BME280;26936;50.524;8.684;2023-07-28T07:07:04;98572.84;;;18.65;100.00
41202;BME280;26936;50.524;8.684;2023-07-28T07:09:29;98575.97;;;18.67;100.00
41202;BME280;26936;50.524;8.684;2023-07-28T07:11:54;98583.00;;;18.61;100.00
41202;BME280;26936;50.524;8.684;2023-07-28T07:14:20;98571.59;;;18.61;100.00
41202;BME280;26936;50.524;8.684;2023-07-28T07:16:45;98585.00;;;18.71;100.00
41202;BME280;26936;50.524;8.684;2023-07-28T07:19:10;98586.03;;;18.74;100.00
41202;BME280;26936;50.524;8.684;2023-07-28T07:21:36;98586.31;;;18.70;100.00
41202;BME280;26936;50.524;8.684;2023-07-28T07:24:05;98582.41;;;18.73;100.00
41202;BME280;26936;50.524;8.684;2023-07-28T07:26:30;98587.00;;;18.82;100.00
41202;BME280;26936;50.524;8.684;2023-07-28T07:28:56;98598.69;;;18.84;100.00
41202;BME280;26936;50.524;8.684;2023-07-28T07:31:22;98597.13;;;18.83;100.00
41202;BME280;26936;50.524;8.684;2023-07-28T07:33:48;98597.06;;;18.94;100.00
41202;BME280;26936;50.524;8.684;2023-07-28T07:36:18;98592.63;;;18.99;100.00
41202;BME280;26936;50.524;8.684;2023-07-28T07:38:44;98595.41;;;19.04;100.00
41202;BME280;26936;50.524;8.684;2023-07-28T07:41:14;98598.75;;;19.14;100.00
41202;BME280;26936;50.524;8.684;2023-07-28T07:43:44;98599.06;;;19.05;100.00
41202;BME280;26936;50.524;8.684;2023-07-28T07:46:09;98600.66;;;19.00;100.00
41202;BME280;26936;50.524;8.684;2023-07-28T07:48:35;98600.13;;;19.02;100.00
41202;BME280;26936;50.524;8.684;2023-07-28T07:51:00;98602.72;;;19.00;100.00
41202;BME280;26936;50.524;8.684;2023-07-28T07:53:25;98606.63;;;18.97;100.00
41202;BME280;26936;50.524;8.684;2023-07-28T07:55:51;98615.91;;;19.08;100.00
41202;BME280;26936;50.524;8.684;2023-07-28T07:58:16;98617.16;;;19.13;100.00
41202;BME280;26936;50.524;8.684;2023-07-28T08:00:41;98612.94;;;19.25;100.00
41202;BME280;26936;50.524;8.684;2023-07-28T08:03:09;98622.25;;;19.25;100.00
41202;BME280;26936;50.524;8.684;2023-07-28T08:05:35;98622.56;;;19.22;100.00
41202;BME280;26936;50.524;8.684;2023-07-28T08:08:00;98636.03;;;19.27;100.00
41202;BME280;26936;50.524;8.684;2023-07-28T08:10:26;98623.09;;;19.20;100.00
41202;BME280;26936;50.524;8.684;2023-07-28T08:12:51;98630.31;;;19.27;100.00
41202;BME280;26936;50.524;8.684;2023-07-28T08:15:16;98632.13;;;19.24;100.00
41202;BME280;26936;50.524;8.684;2023-07-28T08:17:42;98633.66;;;19.31;100.00
41202;BME280;26936;50.524;8.684;2023-07-28T08:20:07;98629.47;;;19.37;100.00
41202;BME280;26936;50.524;8.684;2023-07-28T08:22:34;98636.97;;;19.40;100.00
41202;BME280;26936;50.524;8.684;2023-07-28T08:24:59;98646.88;;;19.34;100.00
41202;BME280;26936;50.524;8.684;2023-07-28T08:27:25;98637.75;;;19.41;100.00
41202;BME280;26936;50.524;8.684;2023-07-28T08:29:53;98645.00;;;19.42;100.00
41202;BME280;26936;50.524;8.684;2023-07-28T08:32:21;98647.78;;;19.53;100.00
41202;BME280;26936;50.524;8.684;2023-07-28T08:34:47;98645.50;;;19.46;100.00
41202;BME280;26936;50.524;8.684;2023-07-28T08:37:12;98648.53;;;19.53;100.00
41202;BME280;26936;50.524;8.684;2023-07-28T08:39:38;98653.41;;;19.64;100.00
41202;BME280;26936;50.524;8.684;2023-07-28T08:42:04;98655.44;;;19.69;100.00
41202;BME280;26936;50.524;8.684;2023-07-28T08:44:31;98651.56;;;19.66;100.00
41202;BME280;26936;50.524;8.684;2023-07-28T08:46:57;98651.09;;;19.62;100.00
41202;BME280;26936;50.524;8.684;2023-07-28T08:49:22;98642.50;;;19.62;100.00
41202;BME280;26936;50.524;8.684;2023-07-28T08:51:52;98655.91;;;19.73;100.00
41202;BME280;26936;50.524;8.684;2023-07-28T08:54:17;98650.06;;;19.89;100.00
41202;BME280;26936;50.524;8.684;2023-07-28T08:56:43;98663.88;;;19.85;100.00
41202;BME280;26936;50.524;8.684;2023-07-28T08:59:09;98663.28;;;19.92;100.00
41202;BME280;26936;50.524;8.684;2023-07-28T09:01:39;98667.63;;;19.99;100.00
41202;BME280;26936;50.524;8.684;2023-07-28T09:04:11;98673.16;;;19.91;100.00
41202;BME280;26936;50.524;8.684;2023-07-28T09:06:37;98655.44;;;19.98;100.00
41202;BME280;26936;50.524;8.684;2023-07-28T09:09:06;98657.59;;;20.16;100.00
41202;BME280;26936;50.524;8.684;2023-07-28T09:11:32;98655.03;;;20.37;100.00
41202;BME280;26936;50.524;8.684;2023-07-28T09:14:00;98651.09;;;20.40;100.00
41202;BME280;26936;50.524;8.684;2023-07-28T09:16:25;98661.56;;;20.56;100.00
41202;BME280;26936;50.524;8.684;2023-07-28T09:18:51;98659.44;;;20.62;100.00
41202;BME280;26936;50.524;8.684;2023-07-28T09:21:28;98670.81;;;20.68;100.00
41202;BME280;26936;50.524;8.684;2023-07-28T09:23:54;98670.69;;;20.55;100.00
41202;BME280;26936;50.524;8.684;2023-07-28T09:26:19;98666.47;;;20.61;100.00
41202;BME280;26936;50.524;8.684;2023-07-28T09:28:44;98664.38;;;20.62;100.00
41202;BME280;26936;50.524;8.684;2023-07-28T09:31:10;98671.72;;;20.76;100.00
41202;BME280;26936;50.524;8.684;2023-07-28T09:33:36;98665.66;;;21.03;100.00
41202;BME280;26936;50.524;8.684;2023-07-28T09:36:10;98668.91;;;20.94;100.00
41202;BME280;26936;50.524;8.684;2023-07-28T09:38:37;98667.53;;;21.01;100.00
41202;BME280;26936;50.524;8.684;2023-07-28T09:41:04;98665.03;;;20.92;100.00
41202;BME280;26936;50.524;8.684;2023-07-28T09:43:35;98665.19;;;21.18;100.00
41202;BME280;26936;50.524;8.684;2023-07-28T09:46:03;98658.41;;;21.02;100.00
41202;BME280;26936;50.524;8.684;2023-07-28T09:48:31;98660.69;;;20.85;100.00
41202;BME280;26936;50.524;8.684;2023-07-28T09:50:58;98667.84;;;20.97;100.00
41202;BME280;26936;50.524;8.684;2023-07-28T09:53:27;98672.13;;;20.85;100.00
41202;BME280;26936;50.524;8.684;2023-07-28T09:55:54;98666.53;;;20.98;100.00
41202;BME280;26936;50.524;8.684;2023-07-28T09:58:23;98662.44;;;21.12;100.00
41202;BME280;26936;50.524;8.684;2023-07-28T10:00:49;98669.44;;;20.93;100.00
41202;BME280;26936;50.524;8.684;2023-07-28T10:03:16;98661.09;;;20.95;100.00
41202;BME280;26936;50.524;8.684;2023-07-28T10:05:42;98663.72;;;21.30;100.00
41202;BME280;26936;50.524;8.684;2023-07-28T10:08:08;98672.16;;;21.41;100.00
41202;BME280;26936;50.524;8.684;2023-07-28T10:10:35;98678.28;;;21.32;100.00
41202;BME280;26936;50.524;8.684;2023-07-28T10:13:01;98666.63;;;21.62;99.35
41202;BME280;26936;50.524;8.684;2023-07-28T10:15:31;98664.38;;;21.73;99.00
41202;BME280;26936;50.524;8.684;2023-07-28T10:17:58;98665.66;;;21.72;99.40
41202;BME280;26936;50.524;8.684;2023-07-28T10:20:38;98668.28;;;21.70;97.44
41202;BME280;26936;50.524;8.684;2023-07-28T10:23:13;98662.81;;;21.72;97.67
41202;BME280;26936;50.524;8.684;2023-07-28T10:25:42;98669.81;;;21.58;96.87
41202;BME280;26936;50.524;8.684;2023-07-28T10:28:28;98679.22;;;21.40;99.23
41202;BME280;26936;50.524;8.684;2023-07-28T10:30:57;98672.13;;;21.60;99.34
41202;BME280;26936;50.524;8.684;2023-07-28T10:33:30;98687.31;;;21.54;99.92
41202;BME280;26936;50.524;8.684;2023-07-28T10:35:57;98682.50;;;21.81;98.79
41202;BME280;26936;50.524;8.684;2023-07-28T10:38:34;98680.50;;;21.58;95.85
41202;BME280;26936;50.524;8.684;2023-07-28T10:43:34;98685.19;;;21.74;96.29
41202;BME280;26936;50.524;8.684;2023-07-28T10:45:59;98690.69;;;22.03;93.79
41202;BME280;26936;50.524;8.684;2023-07-28T10:48:25;98678.81;;;21.99;91.41
41202;BME280;26936;50.524;8.684;2023-07-28T10:50:50;98690.19;;;22.18;92.78
41202;BME280;26936;50.524;8.684;2023-07-28T10:53:16;98681.50;;;22.36;90.87
41202;BME280;26936;50.524;8.684;2023-07-28T10:55:41;98685.69;;;22.35;90.52
41202;BME280;26936;50.524;8.684;2023-07-28T10:58:06;98672.44;;;22.45;90.19
41202;BME280;26936;50.524;8.684;2023-07-28T11:00:32;98678.97;;;22.46;91.24
41202;BME280;26936;50.524;8.684;2023-07-28T11:02:57;98696.47;;;22.16;90.17
41202;BME280;26936;50.524;8.684;2023-07-28T11:05:23;98686.50;;;22.04;90.71
41202;BME280;26936;50.524;8.684;2023-07-28T11:07:50;98681.00;;;22.06;91.32
41202;BME280;26936;50.524;8.684;2023-07-28T11:10:15;98690.94;;;22.05;92.20
41202;BME280;26936;50.524;8.684;2023-07-28T11:12:43;98703.09;;;21.80;94.48
41202;BME280;26936;50.524;8.684;2023-07-28T11:15:09;98696.75;;;21.68;98.39
41202;BME280;26936;50.524;8.684;2023-07-28T11:17:39;98693.41;;;21.83;99.18
41202;BME280;26936;50.524;8.684;2023-07-28T11:20:22;98690.47;;;22.01;98.38
41202;BME280;26936;50.524;8.684;2023-07-28T11:22:57;98695.81;;;22.23;94.79
41202;BME280;26936;50.524;8.684;2023-07-28T11:25:24;98679.25;;;22.16;96.10
41202;BME280;26936;50.524;8.684;2023-07-28T11:27:50;98685.25;;;22.44;92.63
41202;BME280;26936;50.524;8.684;2023-07-28T11:30:17;98678.41;;;22.47;91.05
41202;BME280;26936;50.524;8.684;2023-07-28T11:32:44;98686.50;;;22.62;91.02
41202;BME280;26936;50.524;8.684;2023-07-28T11:35:12;98685.38;;;22.91;88.98
41202;BME280;26936;50.524;8.684;2023-07-28T11:37:39;98685.69;;;23.01;88.41
41202;BME280;26936;50.524;8.684;2023-07-28T11:40:06;98685.56;;;23.19;86.77
41202;BME280;26936;50.524;8.684;2023-07-28T11:42:36;98682.00;;;23.39;84.75
41202;BME280;26936;50.524;8.684;2023-07-28T11:45:03;98681.34;;;23.20;85.69
41202;BME280;26936;50.524;8.684;2023-07-28T11:47:28;98688.47;;;22.80;88.05
41202;BME280;26936;50.524;8.684;2023-07-28T11:49:54;98688.47;;;22.93;88.10
41202;BME280;26936;50.524;8.684;2023-07-28T11:52:20;98687.50;;;22.77;88.91
41202;BME280;26936;50.524;8.684;2023-07-28T11:54:46;98689.44;;;23.09;87.81
41202;BME280;26936;50.524;8.684;2023-07-28T11:57:12;98691.81;;;23.44;85.48
41202;BME280;26936;50.524;8.684;2023-07-28T11:59:40;98686.53;;;23.22;85.34
41202;BME280;26936;50.524;8.684;2023-07-28T12:02:06;98695.59;;;23.26;85.76
41202;BME280;26936;50.524;8.684;2023-07-28T12:04:35;98689.56;;;23.50;83.61
41202;BME280;26936;50.524;8.684;2023-07-28T12:07:07;98681.97;;;23.93;82.96
41202;BME280;26936;50.524;8.684;2023-07-28T12:09:47;98677.56;;;23.72;82.69
41202;BME280;26936;50.524;8.684;2023-07-28T12:12:21;98684.13;;;23.59;81.07
41202;BME280;26936;50.524;8.684;2023-07-28T12:14:47;98672.72;;;23.87;79.43
41202;BME280;26936;50.524;8.684;2023-07-28T12:17:19;98675.63;;;24.08;80.28
41202;BME280;26936;50.524;8.684;2023-07-28T12:20:01;98671.63;;;24.39;78.29
41202;BME280;26936;50.524;8.684;2023-07-28T12:22:31;98674.22;;;24.01;80.42
41202;BME280;26936;50.524;8.684;2023-07-28T12:24:57;98668.50;;;24.58;78.56
41202;BME280;26936;50.524;8.684;2023-07-28T12:27:22;98661.94;;;25.21;76.02
41202;BME280;26936;50.524;8.684;2023-07-28T12:29:50;98656.25;;;24.93;75.21
41202;BME280;26936;50.524;8.684;2023-07-28T12:32:16;98665.78;;;24.03;77.56
41202;BME280;26936;50.524;8.684;2023-07-28T12:34:42;98664.91;;;24.37;78.36
41202;BME280;26936;50.524;8.684;2023-07-28T12:37:07;98668.91;;;24.90;76.16
41202;BME280;26936;50.524;8.684;2023-07-28T12:39:36;98660.78;;;24.25;77.80
41202;BME280;26936;50.524;8.684;2023-07-28T12:42:02;98657.50;;;23.79;79.12
41202;BME280;26936;50.524;8.684;2023-07-28T12:44:27;98657.41;;;23.51;81.62
41202;BME280;26936;50.524;8.684;2023-07-28T12:46:52;98665.81;;;23.49;82.74
41202;BME280;26936;50.524;8.684;2023-07-28T12:49:18;98662.63;;;23.40;83.85
41202;BME280;26936;50.524;8.684;2023-07-28T12:51:44;98659.47;;;23.30;82.84
41202;BME280;26936;50.524;8.684;2023-07-28T12:54:10;98652.41;;;23.31;83.29
41202;BME280;26936;50.524;8.684;2023-07-28T12:56:35;98672.53;;;23.52;82.22
41202;BME280;26936;50.524;8.684;2023-07-28T12:59:00;98665.38;;;23.45;82.49
41202;BME280;26936;50.524;8.684;2023-07-28T13:01:25;98676.16;;;23.32;82.64
41202;BME280;26936;50.524;8.684;2023-07-28T13:03:51;98678.84;;;23.50;80.71
41202;BME280;26936;50.524;8.684;2023-07-28T13:06:16;98674.25;;;23.68;79.94
41202;BME280;26936;50.524;8.684;2023-07-28T13:08:41;98668.94;;;24.13;77.38
41202;BME280;26936;50.524;8.684;2023-07-28T13:11:06;98676.16;;;24.55;77.90
41202;BME280;26936;50.524;8.684;2023-07-28T13:13:32;98678.13;;;24.32;78.11
41202;BME280;26936;50.524;8.684;2023-07-28T13:15:58;98677.91;;;24.30;79.67
41202;BME280;26936;50.524;8.684;2023-07-28T13:18:24;98666.91;;;24.00;79.56
41202;BME280;26936;50.524;8.684;2023-07-28T13:20:50;98666.13;;;24.00;79.72
41202;BME280;26936;50.524;8.684;2023-07-28T13:23:15;98667.78;;;23.95;80.01
41202;BME280;26936;50.524;8.684;2023-07-28T13:25:41;98681.56;;;23.69;82.84
41202;BME280;26936;50.524;8.684;2023-07-28T13:28:06;98674.22;;;23.47;87.44
41202;BME280;26936;50.524;8.684;2023-07-28T13:30:31;98668.94;;;23.38;87.15
41202;BME280;26936;50.524;8.684;2023-07-28T13:32:56;98676.28;;;23.60;83.94
41202;BME280;26936;50.524;8.684;2023-07-28T13:35:22;98671.13;;;23.45;85.66
41202;BME280;26936;50.524;8.684;2023-07-28T13:37:47;98676.03;;;23.37;85.35
41202;BME280;26936;50.524;8.684;2023-07-28T13:40:13;98670.53;;;23.26;84.54
41202;BME280;26936;50.524;8.684;2023-07-28T13:42:38;98669.97;;;23.28;83.99
41202;BME280;26936;50.524;8.684;2023-07-28T13:45:04;98655.47;;;23.20;83.90
41202;BME280;26936;50.524;8.684;2023-07-28T13:47:30;98654.78;;;23.40;82.67
41202;BME280;26936;50.524;8.684;2023-07-28T13:49:55;98671.06;;;23.25;82.30
41202;BME280;26936;50.524;8.684;2023-07-28T13:52:20;98664.41;;;23.43;81.54
41202;BME280;26936;50.524;8.684;2023-07-28T13:54:46;98656.38;;;23.62;80.25
41202;BME280;26936;50.524;8.684;2023-07-28T13:57:11;98662.00;;;23.88;80.27
41202;BME280;26936;50.524;8.684;2023-07-28T13:59:38;98658.53;;;23.89;79.54
41202;BME280;26936;50.524;8.684;2023-07-28T14:02:06;98659.72;;;23.94;79.30
41202;BME280;26936;50.524;8.684;2023-07-28T14:04:32;98651.44;;;24.32;77.37
41202;BME280;26936;50.524;8.684;2023-07-28T14:06:57;98656.88;;;24.15;76.59
41202;BME280;26936;50.524;8.684;2023-07-28T14:09:23;98660.91;;;24.40;76.63
41202;BME280;26936;50.524;8.684;2023-07-28T14:11:49;98665.22;;;24.54;75.70
41202;BME280;26936;50.524;8.684;2023-07-28T14:14:14;98659.47;;;24.54;74.89
41202;BME280;26936;50.524;8.684;2023-07-28T14:16:39;98657.47;;;25.05;74.10
41202;BME280;26936;50.524;8.684;2023-07-28T14:19:05;98653.25;;;25.06;73.14
41202;BME280;26936;50.524;8.684;2023-07-28T14:21:30;98657.53;;;25.20;72.95
41202;BME280;26936;50.524;8.684;2023-07-28T14:23:55;98666.56;;;25.24;72.43
41202;BME280;26936;50.524;8.684;2023-07-28T14:26:21;98663.72;;;24.88;73.25
41202;BME280;26936;50.524;8.684;2023-07-28T14:28:48;98668.50;;;24.30;74.37
41202;BME280;26936;50.524;8.684;2023-07-28T14:31:20;98666.19;;;23.87;76.70
41202;BME280;26936;50.524;8.684;2023-07-28T14:33:47;98659.25;;;23.82;78.19
41202;BME280;26936;50.524;8.684;2023-07-28T14:36:36;98664.66;;;23.86;77.49
41202;BME280;26936;50.524;8.684;2023-07-28T14:39:01;98656.22;;;23.67;77.14
41202;BME280;26936;50.524;8.684;2023-07-28T14:41:27;98658.47;;;23.61;78.08
41202;BME280;26936;50.524;8.684;2023-07-28T14:43:52;98658.34;;;23.67;77.98
41202;BME280;26936;50.524;8.684;2023-07-28T14:46:17;98654.75;;;23.53;78.88
41202;BME280;26936;50.524;8.684;2023-07-28T14:48:43;98661.63;;;23.50;79.69
41202;BME280;26936;50.524;8.684;2023-07-28T14:51:08;98651.41;;;23.62;79.80
41202;BME280;26936;50.524;8.684;2023-07-28T14:53:37;98664.00;;;23.59;78.88
41202;BME280;26936;50.524;8.684;2023-07-28T14:56:04;98658.91;;;23.65;78.28
41202;BME280;26936;50.524;8.684;2023-07-28T14:58:30;98660.50;;;23.74;78.50
41202;BME280;26936;50.524;8.684;2023-07-28T15:00:56;98665.28;;;23.51;78.70
41202;BME280;26936;50.524;8.684;2023-07-28T15:03:22;98662.97;;;23.70;78.07
41202;BME280;26936;50.524;8.684;2023-07-28T15:05:48;98669.63;;;23.65;78.10
41202;BME280;26936;50.524;8.684;2023-07-28T15:08:13;98662.81;;;23.55;78.87
41202;BME280;26936;50.524;8.684;2023-07-28T15:10:39;98661.09;;;23.39;78.69
41202;BME280;26936;50.524;8.684;2023-07-28T15:13:04;98662.63;;;23.40;78.83
41202;BME280;26936;50.524;8.684;2023-07-28T15:15:30;98661.66;;;23.37;79.27
41202;BME280;26936;50.524;8.684;2023-07-28T15:17:55;98662.34;;;23.30;78.04
41202;BME280;26936;50.524;8.684;2023-07-28T15:20:20;98666.00;;;23.31;78.45
41202;BME280;26936;50.524;8.684;2023-07-28T15:22:47;98665.16;;;23.43;77.26
41202;BME280;26936;50.524;8.684;2023-07-28T15:25:13;98655.59;;;23.61;76.51
41202;BME280;26936;50.524;8.684;2023-07-28T15:27:40;98650.84;;;23.64;76.74
41202;BME280;26936;50.524;8.684;2023-07-28T15:30:06;98664.31;;;23.69;76.68
41202;BME280;26936;50.524;8.684;2023-07-28T15:32:32;98655.59;;;23.61;76.72
41202;BME280;26936;50.524;8.684;2023-07-28T15:34:57;98655.31;;;23.52;77.31
41202;BME280;26936;50.524;8.684;2023-07-28T15:37:22;98665.50;;;23.40;77.44
41202;BME280;26936;50.524;8.684;2023-07-28T15:39:48;98664.31;;;23.35;78.46
41202;BME280;26936;50.524;8.684;2023-07-28T15:42:13;98663.34;;;23.20;79.28